Time;durP1;ratioP1;P1;durP2;ratioP2;P2;SDS_P1;SDS_P2;PMS_P1;PMS_P2;Temp;Humidity;BMP_temperature;BMP_pressure;BME280_temperature;BME280_humidity;BME280_pressure;Samples;Min_cycle;Max_cycle;Signal;HPM_P1;HPM_P2
2021/12/30 00:00:08;;;;;;;12.73;12.02;;;;;;;-4.97;100.00;100820.66;4961659;28;20030;-69
2021/12/30 00:02:34;;;;;;;12.18;11.57;;;;;;;-5.09;100.00;100822.88;4973687;28;20514;-68
2021/12/30 00:04:59;;;;;;;11.85;11.25;;;;;;;-4.97;100.00;100818.06;4973867;28;20027;-71
2021/12/30 00:07:25;;;;;;;12.60;11.90;;;;;;;-5.12;100.00;100819.59;4973706;28;20384;-68
2021/12/30 00:09:51;;;;;;;11.55;11.05;;;;;;;-5.05;100.00;100831.34;4974695;28;20034;-67
2021/12/30 00:12:16;;;;;;;12.20;11.60;;;;;;;-5.22;100.00;100824.31;4973464;28;20030;-72
2021/12/30 00:14:42;;;;;;;12.82;12.13;;;;;;;-5.26;100.00;100834.88;4973493;28;20029;-69
2021/12/30 00:17:08;;;;;;;12.45;11.85;;;;;;;-5.20;100.00;100832.03;4973701;28;20081;-71
2021/12/30 00:19:34;;;;;;;13.27;12.57;;;;;;;-5.16;100.00;100836.13;4973525;28;20078;-70
2021/12/30 00:21:59;;;;;;;12.68;12.07;;;;;;;-5.22;100.00;100839.81;4973418;28;20027;-73
2021/12/30 00:24:25;;;;;;;13.75;13.05;;;;;;;-5.21;100.00;100844.13;4973006;28;20034;-68
2021/12/30 00:26:51;;;;;;;12.32;11.73;;;;;;;-5.26;100.00;100843.47;4973121;28;20118;-69
2021/12/30 00:29:16;;;;;;;12.50;11.90;;;;;;;-5.24;100.00;100844.22;4973352;28;20035;-68
2021/12/30 00:31:42;;;;;;;13.10;12.40;;;;;;;-5.32;100.00;100841.97;4973163;28;20031;-68
2021/12/30 00:34:07;;;;;;;12.95;12.35;;;;;;;-5.20;100.00;100839.78;4973224;28;20442;-74
2021/12/30 00:36:33;;;;;;;12.40;11.80;;;;;;;-5.22;100.00;100839.81;4973388;28;20019;-72
2021/12/30 00:38:58;;;;;;;13.63;12.93;;;;;;;-5.28;100.00;100840.13;4973165;28;20468;-71
2021/12/30 00:41:24;;;;;;;13.68;12.98;;;;;;;-5.29;100.00;100844.44;4972859;28;20385;-69
2021/12/30 00:43:49;;;;;;;13.18;12.48;;;;;;;-5.37;100.00;100838.75;4973014;28;20488;-69
2021/12/30 00:46:15;;;;;;;13.55;12.85;;;;;;;-5.26;100.00;100837.47;4972997;28;20413;-72
2021/12/30 00:48:41;;;;;;;12.63;12.02;;;;;;;-5.25;100.00;100841.72;4972847;28;20018;-69
2021/12/30 00:51:08;;;;;;;12.48;11.88;;;;;;;-5.27;100.00;100844.38;4972771;28;20025;-71
2021/12/30 00:53:33;;;;;;;12.50;11.90;;;;;;;-5.14;100.00;100844.66;4972642;28;20039;-70
2021/12/30 00:55:59;;;;;;;12.32;11.73;;;;;;;-5.03;100.00;100839.88;4973014;28;20121;-71
2021/12/30 00:58:25;;;;;;;11.93;11.32;;;;;;;-5.04;100.00;100839.03;4973010;28;20481;-68
2021/12/30 01:00:51;;;;;;;12.43;11.82;;;;;;;-5.17;100.00;100837.03;4972879;28;20109;-72
2021/12/30 01:03:17;;;;;;;11.82;11.23;;;;;;;-4.98;100.00;100837.94;4974229;28;20030;-71
2021/12/30 01:05:44;;;;;;;11.40;10.80;;;;;;;-5.00;100.00;100839.72;4972779;28;20433;-71
2021/12/30 01:08:11;;;;;;;11.68;11.07;;;;;;;-5.16;100.00;100842.16;4972599;28;20097;-73
2021/12/30 01:10:37;;;;;;;11.95;11.35;;;;;;;-5.11;100.00;100839.38;4972647;28;20157;-73
2021/12/30 01:13:08;;;;;;;12.35;11.75;;;;;;;-5.24;100.00;100844.22;4972766;28;20050;-70
2021/12/30 01:21:33;;;;;;;13.13;12.32;;;;;;;-5.17;100.00;100855.16;4965433;28;20070;-72
2021/12/30 01:24:01;;;;;;;12.65;12.05;;;;;;;-5.12;100.00;100851.47;4972399;28;20500;-69
2021/12/30 01:26:27;;;;;;;13.40;12.70;;;;;;;-5.23;100.00;100850.25;4972296;28;20166;-71
2021/12/30 01:28:53;;;;;;;13.18;12.48;;;;;;;-5.25;100.00;100857.22;4972284;28;20106;-72
2021/12/30 01:31:19;;;;;;;13.07;12.38;;;;;;;-5.11;100.00;100847.97;4972334;28;20354;-72
2021/12/30 01:33:46;;;;;;;12.85;12.25;;;;;;;-5.21;100.00;100857.03;4969309;28;20134;-71
2021/12/30 01:36:13;;;;;;;13.25;12.55;;;;;;;-5.04;100.00;100854.56;4971759;28;20031;-68
2021/12/30 01:38:39;;;;;;;11.90;11.30;;;;;;;-5.20;100.00;100855.28;4971926;28;20061;-72
2021/12/30 01:41:06;;;;;;;12.10;11.50;;;;;;;-5.20;100.00;100853.56;4972137;28;20023;-70
2021/12/30 01:43:33;;;;;;;12.63;12.02;;;;;;;-5.11;100.00;100860.06;4972118;28;20117;-70
2021/12/30 01:45:59;;;;;;;12.40;11.80;;;;;;;-5.29;100.00;100861.69;4972272;28;20034;-70
2021/12/30 01:48:24;;;;;;;12.50;11.85;;;;;;;-5.20;100.00;100850.13;4972121;28;20046;-67
2021/12/30 01:50:50;;;;;;;12.93;12.32;;;;;;;-5.11;100.00;100849.72;4972185;28;20015;-70
2021/12/30 01:53:16;;;;;;;12.20;11.60;;;;;;;-4.93;100.00;100850.63;4972170;28;20412;-72
2021/12/30 01:55:43;;;;;;;11.93;11.32;;;;;;;-4.97;100.00;100856.88;4972200;28;20497;-73
2021/12/30 01:58:10;;;;;;;11.63;11.05;;;;;;;-5.01;100.00;100864.75;4972130;28;20027;-71
2021/12/30 02:00:40;;;;;;;11.63;11.05;;;;;;;-5.14;100.00;100871.38;4971908;28;20038;-74
2021/12/30 02:03:06;;;;;;;11.73;11.13;;;;;;;-4.93;100.00;100864.41;4959732;28;20090;-73
2021/12/30 02:05:33;;;;;;;11.82;11.23;;;;;;;-5.18;100.00;100863.81;4968825;28;20496;-72
2021/12/30 02:07:59;;;;;;;11.57;11.07;;;;;;;-5.09;100.00;100860.81;4971931;28;20376;-70
2021/12/30 02:10:25;;;;;;;12.15;11.52;;;;;;;-4.99;100.00;100862.13;4972098;28;20039;-67
2021/12/30 02:12:50;;;;;;;12.57;11.98;;;;;;;-4.91;100.00;100870.38;4972054;28;20023;-72
2021/12/30 02:15:18;;;;;;;11.85;11.30;;;;;;;-5.04;100.00;100877.84;4972065;28;20599;-71
2021/12/30 02:17:45;;;;;;;11.43;10.90;;;;;;;-5.04;100.00;100872.66;4971717;28;20027;-69
2021/12/30 02:20:32;;;;;;;11.80;11.20;;;;;;;-5.03;100.00;100876.91;4972087;28;20026;-72
2021/12/30 02:22:57;;;;;;;11.82;11.23;;;;;;;-5.02;100.00;100870.00;4972280;28;20042;-68
2021/12/30 02:25:23;;;;;;;11.88;11.27;;;;;;;-5.30;100.00;100878.09;4972207;28;20493;-71
2021/12/30 02:27:48;;;;;;;11.95;11.35;;;;;;;-5.12;100.00;100873.91;4972055;28;20392;-71
2021/12/30 02:30:14;;;;;;;12.13;11.52;;;;;;;-5.03;100.00;100873.50;4971603;28;20046;-70
2021/12/30 02:32:39;;;;;;;12.93;12.23;;;;;;;-4.98;100.00;100876.72;4971617;28;20039;-72
2021/12/30 02:35:05;;;;;;;11.95;11.35;;;;;;;-5.00;100.00;100873.34;4973072;28;20029;-71
2021/12/30 02:37:31;;;;;;;11.90;11.30;;;;;;;-5.03;100.00;100870.91;4973111;28;20030;-70
2021/12/30 02:39:56;;;;;;;12.77;12.15;;;;;;;-5.16;100.00;100878.34;4972935;28;20378;-72
2021/12/30 02:42:25;;;;;;;12.25;11.65;;;;;;;-5.17;100.00;100879.25;4973016;28;20031;-70
2021/12/30 02:44:52;;;;;;;12.30;11.70;;;;;;;-5.18;100.00;100880.16;4971881;28;20026;-72
2021/12/30 02:47:18;;;;;;;12.70;12.10;;;;;;;-5.13;100.00;100869.66;4971767;28;20023;-68
2021/12/30 02:49:43;;;;;;;13.48;12.77;;;;;;;-5.22;100.00;100881.19;4974920;28;20027;-70
2021/12/30 02:52:10;;;;;;;12.00;11.40;;;;;;;-5.03;100.00;100884.69;4976622;28;20042;-70
2021/12/30 02:54:39;;;;;;;12.32;11.73;;;;;;;-5.04;100.00;100892.50;4975048;28;20057;-72
2021/12/30 02:57:04;;;;;;;13.25;12.57;;;;;;;-5.33;100.00;100892.00;4976081;28;20469;-70
2021/12/30 02:59:30;;;;;;;13.57;12.88;;;;;;;-5.04;100.00;100892.50;4974907;28;20031;-71
2021/12/30 03:01:56;;;;;;;12.63;11.98;;;;;;;-5.28;100.00;100899.59;4974672;28;20058;-69
2021/12/30 03:04:21;;;;;;;12.90;12.20;;;;;;;-5.50;100.00;100901.38;4975053;28;20082;-69
2021/12/30 03:06:49;;;;;;;13.38;12.68;;;;;;;-5.45;100.00;100902.00;4975103;28;20101;-67
2021/12/30 03:09:15;;;;;;;12.90;12.30;;;;;;;-5.43;100.00;100905.41;4974746;28;20050;-68
2021/12/30 03:11:40;;;;;;;14.57;13.82;;;;;;;-5.38;100.00;100903.44;4974845;28;20066;-71
2021/12/30 03:14:06;;;;;;;12.98;12.38;;;;;;;-5.43;100.00;100903.66;4975374;28;20057;-69
2021/12/30 03:16:35;;;;;;;12.57;11.98;;;;;;;-5.44;100.00;100901.94;4974639;28;20030;-70
2021/12/30 03:19:01;;;;;;;14.05;13.25;;;;;;;-5.41;100.00;100893.25;4974657;28;20039;-70
2021/12/30 03:21:27;;;;;;;13.88;13.18;;;;;;;-5.15;100.00;100905.06;4974747;28;20082;-70
2021/12/30 03:23:54;;;;;;;12.85;12.15;;;;;;;-5.21;100.00;100907.94;4974663;28;20041;-70
2021/12/30 03:26:21;;;;;;;12.93;12.23;;;;;;;-5.06;100.00;100910.69;4974492;28;20549;-71
2021/12/30 03:28:48;;;;;;;12.50;11.90;;;;;;;-5.08;100.00;100904.72;4975286;28;20069;-70
2021/12/30 03:31:17;;;;;;;11.80;11.20;;;;;;;-4.95;100.00;100911.97;4974851;28;20114;-71
2021/12/30 03:33:43;;;;;;;12.30;11.70;;;;;;;-4.88;100.00;100914.22;4973841;28;20432;-70
2021/12/30 03:36:10;;;;;;;11.60;11.00;;;;;;;-4.87;100.00;100913.31;4974640;28;20030;-70
2021/12/30 03:38:39;;;;;;;11.48;10.88;;;;;;;-4.95;100.00;100922.31;4974207;28;20548;-69
2021/12/30 03:41:07;;;;;;;12.25;11.57;;;;;;;-4.95;100.00;100927.50;4965931;28;20033;-72
2021/12/30 03:43:32;;;;;;;11.30;10.80;;;;;;;-5.15;100.00;100928.31;4973992;28;20025;-70
2021/12/30 03:45:58;;;;;;;12.30;11.70;;;;;;;-5.15;100.00;100930.91;4975504;28;20027;-70
2021/12/30 03:48:31;;;;;;;12.50;11.90;;;;;;;-5.04;100.00;100933.91;4974252;28;20019;-69
2021/12/30 03:50:57;;;;;;;12.32;11.73;;;;;;;-5.08;100.00;100930.59;4974229;28;20074;-69
2021/12/30 03:53:22;;;;;;;12.48;11.77;;;;;;;-4.98;100.00;100938.81;4973666;28;20077;-70
2021/12/30 03:55:51;;;;;;;12.32;11.73;;;;;;;-5.26;100.00;100940.88;4974557;28;20026;-66
2021/12/30 03:58:17;;;;;;;12.38;11.77;;;;;;;-5.20;100.00;100938.06;4973777;28;20117;-70
2021/12/30 04:00:44;;;;;;;11.50;10.90;;;;;;;-4.94;100.00;100948.13;4972907;28;20114;-72
2021/12/30 04:03:09;;;;;;;12.25;11.55;;;;;;;-4.78;100.00;100945.69;4956915;28;20026;-72
2021/12/30 04:05:35;;;;;;;11.65;11.05;;;;;;;-4.76;100.00;100947.34;4975359;28;20027;-67
2021/12/30 04:08:01;;;;;;;11.65;11.05;;;;;;;-4.67;100.00;100953.00;4959600;28;20058;-69
2021/12/30 04:10:27;;;;;;;11.60;11.00;;;;;;;-4.70;100.00;100953.13;4973628;28;20436;-66
2021/12/30 04:12:53;;;;;;;10.57;10.07;;;;;;;-4.86;100.00;100950.38;4973463;28;20030;-72
2021/12/30 04:15:19;;;;;;;12.02;11.32;;;;;;;-5.20;100.00;100944.06;4973511;28;20081;-71
2021/12/30 04:17:45;;;;;;;11.75;11.15;;;;;;;-4.86;100.00;100951.22;4973337;28;20031;-68
2021/12/30 04:20:12;;;;;;;11.95;11.35;;;;;;;-5.01;100.00;100950.13;4973465;28;20034;-71
2021/12/30 04:22:40;;;;;;;12.38;11.73;;;;;;;-5.21;100.00;100959.66;4959122;28;20023;-72
2021/12/30 04:25:09;;;;;;;11.98;11.35;;;;;;;-5.41;100.00;100965.63;4973930;28;20038;-69
2021/12/30 04:27:35;;;;;;;12.57;11.88;;;;;;;-5.24;100.00;100970.94;4973175;28;20023;-70
2021/12/30 04:30:01;;;;;;;13.05;12.40;;;;;;;-5.17;100.00;100966.34;4973289;28;20038;-69
2021/12/30 04:32:26;;;;;;;12.90;12.27;;;;;;;-5.20;100.00;100969.09;4974609;28;20029;-68
2021/12/30 04:34:52;;;;;;;12.77;12.07;;;;;;;-5.18;100.00;100980.19;4972982;28;20067;-69
2021/12/30 04:37:17;;;;;;;12.55;11.95;;;;;;;-5.30;100.00;100981.53;4973108;28;20035;-68
2021/12/30 04:39:43;;;;;;;13.15;12.45;;;;;;;-5.16;100.00;100983.56;4972738;28;20031;-70
2021/12/30 04:42:09;;;;;;;12.70;12.05;;;;;;;-5.17;100.00;100987.88;4973040;28;20027;-73
2021/12/30 04:44:34;;;;;;;12.90;12.25;;;;;;;-5.04;100.00;100990.81;4972903;28;20027;-69
2021/12/30 04:47:00;;;;;;;11.65;11.05;;;;;;;-4.95;100.00;100995.59;4972874;28;20035;-72
2021/12/30 04:49:26;;;;;;;12.05;11.35;;;;;;;-4.96;100.00;101003.44;4973049;28;20062;-72
2021/12/30 04:51:52;;;;;;;12.27;11.68;;;;;;;-5.42;100.00;101002.72;4961787;28;20516;-68
2021/12/30 04:54:18;;;;;;;11.93;11.32;;;;;;;-5.44;100.00;101004.50;4972725;28;20074;-73
2021/12/30 04:56:44;;;;;;;12.55;11.95;;;;;;;-5.51;100.00;101003.06;4972906;28;20071;-70
2021/12/30 04:59:09;;;;;;;13.98;13.18;;;;;;;-5.23;100.00;101013.16;4972851;28;20101;-70
2021/12/30 05:01:35;;;;;;;12.35;11.75;;;;;;;-5.34;100.00;101011.84;4972798;28;20453;-71
2021/12/30 05:04:01;;;;;;;12.25;11.65;;;;;;;-5.05;100.00;101022.75;4972844;28;20049;-72
2021/12/30 05:06:26;;;;;;;12.70;12.00;;;;;;;-5.01;100.00;101027.72;4973759;28;20030;-69
2021/12/30 05:08:52;;;;;;;11.80;11.20;;;;;;;-4.92;100.00;101026.53;4961789;28;20082;-70
2021/12/30 05:11:17;;;;;;;11.85;11.25;;;;;;;-5.06;100.00;101014.16;4972865;28;20042;-74
2021/12/30 05:13:43;;;;;;;11.90;11.30;;;;;;;-5.04;100.00;101022.69;4972666;28;20512;-71
2021/12/30 05:16:08;;;;;;;11.57;10.98;;;;;;;-5.06;100.00;101021.94;4972529;28;20448;-67
2021/12/30 05:18:36;;;;;;;13.13;12.43;;;;;;;-5.18;100.00;101026.75;4972425;28;20038;-67
2021/12/30 05:21:04;;;;;;;12.10;11.48;;;;;;;-4.85;100.00;101030.50;4971493;28;20151;-71
2021/12/30 05:23:30;;;;;;;12.27;11.57;;;;;;;-4.91;100.00;101022.19;4972363;28;20385;-67
2021/12/30 05:25:56;;;;;;;11.93;11.23;;;;;;;-4.79;100.00;101032.00;4972496;28;20034;-69
2021/12/30 05:28:22;;;;;;;10.68;10.18;;;;;;;-5.04;100.00;101034.78;4972596;28;20446;-71
2021/12/30 05:30:48;;;;;;;11.75;11.15;;;;;;;-5.07;100.00;101047.84;4972476;28;20103;-69
2021/12/30 05:33:13;;;;;;;11.88;11.27;;;;;;;-5.18;100.00;101052.63;4972356;28;20034;-72
2021/12/30 05:35:39;;;;;;;11.18;10.63;;;;;;;-4.87;100.00;101047.84;4971944;28;20030;-70
2021/12/30 05:38:04;;;;;;;11.77;11.18;;;;;;;-4.85;100.00;101047.78;4972499;28;20267;-72
2021/12/30 05:40:31;;;;;;;11.13;10.52;;;;;;;-4.79;100.00;101065.66;4971276;28;20478;-71
2021/12/30 05:42:57;;;;;;;12.68;11.88;;;;;;;-4.75;100.00;101075.81;4972404;28;20105;-72
2021/12/30 05:45:22;;;;;;;11.75;11.05;;;;;;;-4.65;100.00;101078.03;4972138;28;20487;-68
2021/12/30 05:47:51;;;;;;;11.32;10.73;;;;;;;-4.58;100.00;101082.88;4962850;28;20038;-69
2021/12/30 05:50:23;;;;;;;11.05;10.45;;;;;;;-4.62;100.00;101089.09;4971231;28;20042;-72
2021/12/30 05:52:49;;;;;;;12.38;11.68;;;;;;;-4.65;100.00;101091.81;4954710;28;20580;-72
2021/12/30 05:55:15;;;;;;;11.07;10.48;;;;;;;-4.61;100.00;101093.38;4972073;28;20087;-67
2021/12/30 05:57:42;;;;;;;11.57;10.98;;;;;;;-4.76;100.00;101097.44;4972057;28;20023;-68
2021/12/30 06:00:10;;;;;;;11.38;10.77;;;;;;;-4.65;100.00;101104.75;4972115;28;20035;-69
2021/12/30 06:02:36;;;;;;;11.55;10.95;;;;;;;-4.95;100.00;101109.44;4957841;28;20027;-68
2021/12/30 06:05:02;;;;;;;11.63;11.02;;;;;;;-5.09;100.00;101112.56;4971939;28;20114;-70
2021/12/30 06:07:28;;;;;;;12.27;11.57;;;;;;;-4.88;100.00;101120.38;4971274;28;20028;-70
2021/12/30 06:09:53;;;;;;;11.60;11.00;;;;;;;-5.15;100.00;101124.91;4972062;28;20059;-71
2021/12/30 06:12:19;;;;;;;11.98;11.38;;;;;;;-5.30;100.00;101127.19;4972911;28;20433;-70
2021/12/30 06:14:44;;;;;;;12.68;11.98;;;;;;;-5.25;100.00;101128.75;4971984;28;20063;-73
2021/12/30 06:17:13;;;;;;;12.13;11.52;;;;;;;-5.13;100.00;101130.88;4971973;28;20031;-72
2021/12/30 06:19:38;;;;;;;12.45;11.75;;;;;;;-5.06;100.00;101116.81;4971973;28;20031;-72
2021/12/30 06:22:04;;;;;;;12.05;11.45;;;;;;;-4.87;100.00;101122.06;4971927;28;20045;-68
2021/12/30 06:24:30;;;;;;;11.95;11.35;;;;;;;-5.11;100.00;101136.81;4975967;28;20384;-65
2021/12/30 06:26:55;;;;;;;12.48;11.80;;;;;;;-5.23;100.00;101132.97;4975665;28;20078;-73
2021/12/30 06:29:21;;;;;;;11.80;11.20;;;;;;;-5.04;100.00;101146.03;4975659;28;20023;-71
2021/12/30 06:31:46;;;;;;;12.57;11.88;;;;;;;-5.23;100.00;101150.22;4976691;28;20035;-70
2021/12/30 06:34:12;;;;;;;12.73;12.02;;;;;;;-5.12;100.00;101148.06;4975375;28;20026;-66
2021/12/30 06:36:37;;;;;;;12.88;12.15;;;;;;;-4.93;100.00;101140.41;4975296;28;20588;-73
2021/12/30 06:39:04;;;;;;;12.77;12.07;;;;;;;-4.92;100.00;101150.72;4975217;28;20022;-73
2021/12/30 06:41:29;;;;;;;11.82;11.23;;;;;;;-5.04;100.00;101157.22;4975338;28;20038;-69
2021/12/30 06:43:55;;;;;;;11.68;11.07;;;;;;;-5.19;100.00;101160.41;4975222;28;20023;-69
2021/12/30 06:46:23;;;;;;;13.18;12.48;;;;;;;-5.22;100.00;101170.00;4973468;28;20041;-67
2021/12/30 06:48:49;;;;;;;13.07;12.38;;;;;;;-5.23;100.00;101168.31;4975021;28;20077;-68
2021/12/30 06:51:18;;;;;;;12.57;11.90;;;;;;;-5.16;100.00;101168.03;4975064;28;20039;-71
2021/12/30 06:53:44;;;;;;;14.18;13.38;;;;;;;-5.32;100.00;101167.78;4974659;28;20375;-69
2021/12/30 06:56:10;;;;;;;12.77;12.18;;;;;;;-5.40;100.00;101166.38;4974994;28;20035;-70
2021/12/30 06:58:35;;;;;;;14.25;13.43;;;;;;;-5.17;100.00;101160.34;4975890;28;20101;-71
2021/12/30 07:01:01;;;;;;;13.15;12.45;;;;;;;-5.04;100.00;101162.38;4974307;28;20117;-70
2021/12/30 07:03:27;;;;;;;13.60;12.88;;;;;;;-5.08;100.00;101170.31;4974806;28;20049;-73
2021/12/30 07:05:54;;;;;;;13.80;13.00;;;;;;;-5.27;100.00;101177.97;4974587;28;20397;-71
2021/12/30 07:08:20;;;;;;;13.63;12.82;;;;;;;-5.20;100.00;101187.16;4974364;28;20058;-73
2021/12/30 07:10:46;;;;;;;13.52;12.73;;;;;;;-5.25;100.00;101188.22;4974590;28;20114;-68
2021/12/30 07:13:11;;;;;;;13.50;12.80;;;;;;;-5.32;100.00;101203.97;4974417;28;20121;-69
2021/12/30 07:15:37;;;;;;;14.20;13.40;;;;;;;-5.22;100.00;101206.22;4974241;28;20035;-72
2021/12/30 07:18:02;;;;;;;15.18;14.23;;;;;;;-4.83;100.00;101204.69;4974504;28;20031;-71
2021/12/30 07:20:28;;;;;;;12.13;11.52;;;;;;;-4.52;100.00;101209.50;4974635;28;20085;-69
2021/12/30 07:22:53;;;;;;;12.43;11.80;;;;;;;-4.37;100.00;101215.78;4974476;28;20050;-71
2021/12/30 07:25:19;;;;;;;12.52;11.82;;;;;;;-4.56;100.00;101213.09;4974100;28;20026;-73
2021/12/30 07:27:48;;;;;;;11.88;11.27;;;;;;;-4.89;100.00;101204.94;4974895;28;20050;-71
2021/12/30 07:30:14;;;;;;;14.05;13.25;;;;;;;-5.36;100.00;101207.59;4974549;28;20424;-69
2021/12/30 07:32:40;;;;;;;13.88;13.05;;;;;;;-5.25;100.00;101201.16;4974148;28;20031;-70
2021/12/30 07:35:06;;;;;;;14.60;13.70;;;;;;;-5.04;100.00;101211.53;4974744;28;20038;-68
2021/12/30 07:37:32;;;;;;;15.48;14.48;;;;;;;-5.13;100.00;101219.66;4975145;28;20133;-69
2021/12/30 07:39:57;;;;;;;13.20;12.50;;;;;;;-5.15;100.00;101231.78;4973929;28;20393;-69
2021/12/30 07:42:23;;;;;;;13.55;12.75;;;;;;;-5.16;100.00;101237.88;4973757;28;20400;-71
2021/12/30 07:44:48;;;;;;;13.00;12.30;;;;;;;-4.89;100.00;101227.38;4973769;28;20126;-71
2021/12/30 07:47:14;;;;;;;12.75;12.05;;;;;;;-4.93;100.00;101233.56;4974188;28;20027;-73
2021/12/30 07:49:39;;;;;;;12.80;12.20;;;;;;;-4.48;100.00;101233.50;4974030;28;20038;-71
2021/12/30 07:52:06;;;;;;;12.00;11.40;;;;;;;-4.33;100.00;101227.72;4974210;28;20039;-69
2021/12/30 07:54:32;;;;;;;11.55;10.95;;;;;;;-4.73;100.00;101229.31;4973607;28;20050;-71
2021/12/30 07:56:58;;;;;;;11.73;11.13;;;;;;;-4.55;100.00;101232.09;4974204;28;20477;-70
2021/12/30 07:59:23;;;;;;;12.25;11.55;;;;;;;-4.23;100.00;101233.38;4973844;28;20036;-70
2021/12/30 08:01:49;;;;;;;11.18;10.60;;;;;;;-4.73;100.00;101233.63;4973557;28;20424;-67
2021/12/30 08:04:14;;;;;;;11.32;10.73;;;;;;;-4.83;100.00;101234.91;4974262;28;20392;-69
2021/12/30 08:06:40;;;;;;;11.30;10.70;;;;;;;-4.22;100.00;101227.28;4973736;28;20027;-72
2021/12/30 08:09:06;;;;;;;11.23;10.63;;;;;;;-3.84;100.00;101228.25;4974382;28;20026;-73
2021/12/30 08:11:32;;;;;;;13.00;12.20;;;;;;;-3.89;100.00;101230.22;4973074;28;20042;-67
2021/12/30 08:13:59;;;;;;;11.90;11.20;;;;;;;-3.94;100.00;101229.56;4972969;28;20035;-73
2021/12/30 08:16:25;;;;;;;12.65;11.85;;;;;;;-3.83;100.00;101227.34;4973213;28;20035;-70
2021/12/30 08:18:51;;;;;;;12.10;11.40;;;;;;;-4.77;100.00;101230.34;4974655;28;20054;-71
2021/12/30 08:21:17;;;;;;;12.45;11.73;;;;;;;-4.77;100.00;101242.44;4973052;28;20050;-71
2021/12/30 08:23:42;;;;;;;11.63;11.02;;;;;;;-4.96;100.00;101242.28;4973237;28;20073;-69
2021/12/30 08:26:08;;;;;;;11.48;10.95;;;;;;;-4.48;100.00;101230.91;4974501;28;20026;-69
2021/12/30 08:28:33;;;;;;;12.20;11.60;;;;;;;-4.06;100.00;101237.84;4974748;28;20041;-69
2021/12/30 08:30:59;;;;;;;11.48;10.88;;;;;;;-3.73;100.00;101244.19;4973140;28;20033;-71
2021/12/30 08:33:25;;;;;;;11.55;10.95;;;;;;;-4.69;100.00;101249.91;4973349;28;20038;-69
2021/12/30 08:35:50;;;;;;;12.18;11.48;;;;;;;-4.51;100.00;101250.00;4967406;28;20023;-72
2021/12/30 08:38:17;;;;;;;12.55;11.77;;;;;;;-3.93;100.00;101252.81;4970713;28;20129;-68
2021/12/30 08:40:47;;;;;;;11.80;11.10;;;;;;;-4.83;100.00;101251.28;4972978;28;20102;-71
2021/12/30 08:43:14;;;;;;;12.45;11.75;;;;;;;-3.84;100.00;101248.16;4974248;28;20396;-69
2021/12/30 08:45:41;;;;;;;12.52;11.77;;;;;;;-4.14;100.00;101250.28;4972493;28;20473;-69
2021/12/30 08:48:06;;;;;;;11.57;10.98;;;;;;;-4.43;100.00;101248.88;4972815;28;20038;-71
2021/12/30 08:50:33;;;;;;;11.88;11.18;;;;;;;-4.03;100.00;101254.13;4972653;28;20477;-69
2021/12/30 08:52:58;;;;;;;11.35;10.75;;;;;;;-3.99;100.00;101244.44;4972231;28;20097;-69
2021/12/30 08:55:24;;;;;;;10.98;10.38;;;;;;;-3.91;100.00;101235.44;4972700;28;20023;-68
2021/12/30 08:57:51;;;;;;;11.88;11.18;;;;;;;-4.26;100.00;101239.53;4973889;28;20027;-70
2021/12/30 09:00:38;;;;;;;11.82;11.18;;;;;;;-4.28;100.00;101245.66;4972598;28;20058;-68
2021/12/30 09:03:05;;;;;;;11.88;11.23;;;;;;;-4.02;100.00;101244.59;4972157;28;20133;-71
2021/12/30 09:05:32;;;;;;;11.93;11.23;;;;;;;-4.77;100.00;101245.88;4972352;28;20015;-70
2021/12/30 09:07:58;;;;;;;12.13;11.52;;;;;;;-4.63;100.00;101236.69;4969358;28;20090;-69
2021/12/30 09:10:25;;;;;;;11.88;11.27;;;;;;;-4.31;100.00;101238.88;4973778;28;20023;-67
2021/12/30 09:12:51;;;;;;;11.23;10.63;;;;;;;-4.60;100.00;101241.78;4973858;28;20034;-68
2021/12/30 09:15:20;;;;;;;12.05;11.45;;;;;;;-4.35;100.00;101234.69;4972290;28;20031;-68
2021/12/30 09:17:47;;;;;;;12.32;11.63;;;;;;;-3.67;100.00;101243.94;4956271;28;20018;-67
2021/12/30 09:20:13;;;;;;;11.85;11.23;;;;;;;-3.30;100.00;101239.72;4972227;28;20126;-70
2021/12/30 09:22:39;;;;;;;11.23;10.63;;;;;;;-3.80;100.00;101250.56;4972408;28;20042;-72
2021/12/30 09:25:08;;;;;;;10.30;9.80;;;;;;;-3.80;100.00;101242.78;4972373;28;20039;-70
2021/12/30 09:27:38;;;;;;;11.48;10.80;;;;;;;-3.36;100.00;101247.78;4972155;28;20370;-69
2021/12/30 09:30:06;;;;;;;10.52;9.98;;;;;;;-3.06;100.00;101248.16;4972302;28;20146;-72
2021/12/30 09:32:31;;;;;;;10.82;10.23;;;;;;;-3.23;100.00;101253.25;4961684;28;20023;-71
2021/12/30 09:34:57;;;;;;;10.95;10.35;;;;;;;-3.07;100.00;101246.47;4972128;28;20065;-68
2021/12/30 09:37:22;;;;;;;9.93;9.43;;;;;;;-3.22;100.00;101245.41;4973678;28;20057;-71
2021/12/30 09:39:48;;;;;;;10.20;9.70;;;;;;;-3.21;100.00;101251.44;4972209;28;20027;-71
2021/12/30 09:42:15;;;;;;;10.15;9.65;;;;;;;-3.16;100.00;101257.25;4972137;28;20113;-66
2021/12/30 09:44:40;;;;;;;11.60;10.90;;;;;;;-3.10;100.00;101264.75;4971761;28;20027;-69
2021/12/30 09:47:06;;;;;;;10.75;10.15;;;;;;;-3.45;100.00;101267.19;4962602;28;20030;-70
2021/12/30 09:49:32;;;;;;;11.18;10.57;;;;;;;-3.13;100.00;101270.94;4971693;28;20051;-71
2021/12/30 09:51:57;;;;;;;10.10;9.60;;;;;;;-2.90;100.00;101271.66;4971999;28;20023;-66
2021/12/30 09:54:23;;;;;;;11.13;10.52;;;;;;;-2.94;100.00;101280.47;4971871;28;20043;-68
2021/12/30 09:56:50;;;;;;;11.48;10.80;;;;;;;-3.21;100.00;101280.81;4971854;28;20132;-74
2021/12/30 09:59:16;;;;;;;11.85;11.15;;;;;;;-3.02;100.00;101282.59;4974772;28;20023;-71
2021/12/30 10:01:42;;;;;;;11.35;10.75;;;;;;;-2.91;100.00;101288.16;4975780;28;20039;-70
2021/12/30 10:04:10;;;;;;;10.98;10.35;;;;;;;-2.69;100.00;101283.66;4975708;28;20477;-71
2021/12/30 10:06:42;;;;;;;11.25;10.65;;;;;;;-2.62;100.00;101277.25;4975955;28;20038;-70
2021/12/30 10:09:13;;;;;;;10.35;9.80;;;;;;;-2.69;100.00;101285.41;4975940;28;20058;-73
2021/12/30 10:11:49;;;;;;;11.45;10.75;;;;;;;-2.56;100.00;101302.09;4977008;28;20396;-71
2021/12/30 10:14:33;;;;;;;10.85;10.20;;;;;;;-2.46;100.00;101289.50;4975247;28;20396;-69
2021/12/30 10:17:15;;;;;;;;;;;;;;;-2.40;100.00;101292.66;4976716;28;20030;-70
2021/12/30 10:19:41;;;;;;;10.10;9.52;;;;;;;-2.54;100.00;101284.69;4975744;28;20358;-67
2021/12/30 10:22:11;;;;;;;11.60;10.90;;;;;;;-2.29;100.00;101273.94;4975142;28;20034;-71
2021/12/30 10:24:38;;;;;;;10.82;10.30;;;;;;;-2.31;100.00;101274.03;4975256;28;20049;-72
2021/12/30 10:27:03;;;;;;;10.43;9.88;;;;;;;-2.02;100.00;101261.38;4975754;28;20123;-69
2021/12/30 10:29:43;;;;;;;11.95;11.20;;;;;;;-2.19;100.00;101266.56;4971227;28;20078;-70
2021/12/30 10:32:28;;;;;;;9.77;9.27;;;;;;;-1.98;100.00;101268.94;4975326;28;20030;-70
2021/12/30 10:35:12;;;;;;;10.20;9.70;;;;;;;-1.89;100.00;101272.00;4975478;28;20027;-70
2021/12/30 10:37:43;;;;;;;9.73;9.23;;;;;;;-2.02;100.00;101267.41;4975297;28;20045;-73
2021/12/30 10:40:30;;;;;;;9.63;9.13;;;;;;;-1.95;100.00;101257.53;4976556;28;20105;-68
2021/12/30 10:43:13;;;;;;;9.25;8.85;;;;;;;-1.90;100.00;101260.75;4966060;28;20060;-70
2021/12/30 10:45:39;;;;;;;9.93;9.43;;;;;;;-1.66;100.00;101263.88;4964463;28;20027;-70
2021/12/30 10:48:09;;;;;;;9.43;8.93;;;;;;;-2.18;100.00;101261.28;4976082;28;20027;-73
2021/12/30 10:50:34;;;;;;;10.20;9.68;;;;;;;-1.89;100.00;101265.03;4975197;28;20030;-71
2021/12/30 10:53:00;;;;;;;10.95;10.27;;;;;;;-1.92;100.00;101261.75;4974559;28;20105;-69
2021/12/30 10:55:25;;;;;;;10.68;10.07;;;;;;;-2.07;100.00;101256.38;4975070;28;20026;-70
2021/12/30 10:57:52;;;;;;;10.43;9.93;;;;;;;-2.14;100.00;101252.41;4973365;28;20046;-72
2021/12/30 11:00:33;;;;;;;10.63;10.02;;;;;;;-2.17;100.00;101249.97;4973414;28;20091;-70
2021/12/30 11:03:17;;;;;;;10.13;9.63;;;;;;;-2.24;100.00;101244.22;4973651;28;20511;-71
2021/12/30 11:06:10;;;;;;;11.18;10.57;;;;;;;-2.38;100.00;101228.47;4973929;28;20086;-71